Terminal Aerodrome Forecast
Issued by NWS

Home | Current Version | Previous Version | Text Only | Print | Product List | Glossary On
Versions: 1 2 3 4 5 6 7 8 9 10 11 12 13
000
FTUS46 KSEW 221700
TAFCLM
TAF
KCLM 221720Z 2218/2318 VRB03KT P6SM BKN030 BKN100
     FM230700 VRB03KT P6SM BKN020 OVC070
     FM231700 32005KT P6SM -SHRA BKN010 OVC030=

USA.gov is the U.S. government's official web portal to all federal, state and local government web resources and services.